»·PEaware :: N49LP L52-L88

N49LP :: L52-L88

FLIGHT INFORMATION

Flight Status: Arrived
Operator: Privately registered:
United States
More flights under this callsign
Pilot: Les P. (123)
Aircraft: BEECH AIRCRAFT BONANZA
(BE35)
More flights by this aircraft type
Origin: L52 Oceano Co
United States
Destination: L88 New Cuyama
United States
More flights between these airports :: More routes between these airports
Route: DIRECT
File this flight plan on PilotEdge
Remarks:
Altitude:
(Current/Filed)
7,500ft
Speed:
(Current/Filed)
167kts
Departed: 12-Feb-19 11:21 AM
Arrived: 12-Feb-19 11:46 AM
Distance/Time
Traveled:
47nm/0:24
Distance/Time
To Go:
Arrived

Flight Plot

Page will automatically refresh every two minutes.


Map Options




Map Legend


Flown Route
Filed Route
Departure Airport
Arrival Airport
Navaid (VOR, NDB)
Fix

Horizontal Profiles

Position Reports

Time Latitude Longitude Heading Altitude Ground
Speed
12-Feb-19 10:16 35.103474 -120.624708 214 17ft 0kts
12-Feb-19 10:17 35.103474 -120.624708 214 17ft 0kts
12-Feb-19 10:18 35.103474 -120.624708 214 17ft 0kts
12-Feb-19 10:19 35.103474 -120.624708 214 17ft 0kts
12-Feb-19 10:20 35.103474 -120.624708 214 17ft 0kts
12-Feb-19 10:21 35.103474 -120.624708 214 17ft 0kts
12-Feb-19 10:22 35.103474 -120.624708 214 17ft 0kts
12-Feb-19 10:23 35.103474 -120.624708 214 17ft 0kts
12-Feb-19 10:24 35.103474 -120.624708 214 17ft 0kts
12-Feb-19 10:25 35.103474 -120.624708 214 17ft 0kts
12-Feb-19 10:26 35.103474 -120.624708 214 17ft 0kts
12-Feb-19 10:28 35.103474 -120.624708 214 17ft 0kts
12-Feb-19 10:29 35.103474 -120.624708 214 17ft 0kts
12-Feb-19 10:30 35.103474 -120.624708 214 17ft 0kts
12-Feb-19 10:31 35.103474 -120.624708 214 17ft 0kts
12-Feb-19 10:32 35.103474 -120.624708 214 17ft 0kts
12-Feb-19 10:33 35.103474 -120.624708 214 17ft 0kts
12-Feb-19 10:34 35.103474 -120.624708 214 17ft 0kts
12-Feb-19 10:35 35.103474 -120.624708 214 17ft 0kts
12-Feb-19 10:36 35.103474 -120.624708 214 17ft 0kts
12-Feb-19 10:37 35.103474 -120.624708 214 17ft 0kts
12-Feb-19 10:38 35.103474 -120.624708 214 17ft 0kts
12-Feb-19 10:39 35.103474 -120.624708 214 17ft 0kts
12-Feb-19 10:40 35.103474 -120.624708 214 17ft 0kts
12-Feb-19 10:41 35.103474 -120.624708 214 17ft 0kts
12-Feb-19 10:42 35.103474 -120.624708 214 17ft 0kts
12-Feb-19 10:43 35.103474 -120.624708 214 17ft 0kts
12-Feb-19 10:44 35.103474 -120.624708 214 17ft 0kts
12-Feb-19 10:45 35.103474 -120.624708 214 17ft 0kts
12-Feb-19 10:45 35.103474 -120.624708 214 17ft 0kts
12-Feb-19 10:47 35.103474 -120.624708 214 17ft 0kts
12-Feb-19 10:48 35.103474 -120.624708 214 17ft 0kts
12-Feb-19 10:48 35.103474 -120.624708 214 17ft 0kts
12-Feb-19 10:49 35.103474 -120.624708 214 17ft 0kts
12-Feb-19 10:51 35.103474 -120.624708 214 17ft 0kts
12-Feb-19 10:52 35.103474 -120.624708 214 17ft 0kts
12-Feb-19 10:52 35.103474 -120.624708 214 17ft 0kts
12-Feb-19 10:53 35.103474 -120.624708 214 17ft 0kts
12-Feb-19 10:54 35.103474 -120.624708 214 17ft 0kts
12-Feb-19 10:55 35.103474 -120.624708 214 17ft 0kts
12-Feb-19 10:56 35.103474 -120.624708 214 17ft 0kts
12-Feb-19 10:57 35.103474 -120.624708 214 17ft 0kts
12-Feb-19 10:58 35.103474 -120.624708 214 17ft 0kts
12-Feb-19 10:59 35.103474 -120.624708 214 17ft 0kts
12-Feb-19 11:00 35.103474 -120.624708 214 17ft 0kts
12-Feb-19 11:01 35.103474 -120.624708 214 17ft 0kts
12-Feb-19 11:02 35.103474 -120.624708 214 17ft 0kts
12-Feb-19 11:03 35.103474 -120.624708 214 17ft 0kts
12-Feb-19 11:04 35.103472 -120.624709 214 17ft 0kts
12-Feb-19 11:05 35.103469 -120.624711 214 17ft 0kts
12-Feb-19 11:06 35.103466 -120.624714 214 17ft 0kts
12-Feb-19 11:07 35.103463 -120.624716 214 17ft 0kts
12-Feb-19 11:08 35.103460 -120.624719 214 17ft 0kts
12-Feb-19 11:09 35.103457 -120.624721 214 17ft 0kts
12-Feb-19 11:10 35.103454 -120.624724 214 17ft 0kts
12-Feb-19 11:11 35.103451 -120.624726 214 17ft 0kts
12-Feb-19 11:12 35.103448 -120.624729 214 17ft 0kts
12-Feb-19 11:13 35.102180 -120.622606 124 17ft 11kts
12-Feb-19 11:14 35.101395 -120.622618 210 17ft 6kts
12-Feb-19 11:15 35.099466 -120.619523 61 17ft 0kts
12-Feb-19 11:16 35.099468 -120.619520 61 17ft 0kts
12-Feb-19 11:17 35.099470 -120.619515 61 17ft 0kts
12-Feb-19 11:18 35.099472 -120.619510 61 17ft 0kts
12-Feb-19 11:19 35.099980 -120.619475 302 17ft 7kts
12-Feb-19 11:20 35.113400 -120.643081 305 839ft 105kts
12-Feb-19 11:21 35.106568 -120.672324 211 1867ft 109kts
12-Feb-19 11:22 35.082157 -120.665077 140 3008ft 94kts
12-Feb-19 11:23 35.067251 -120.640971 117 4156ft 90kts
12-Feb-19 11:24 35.072369 -120.609248 80 5143ft 108kts
12-Feb-19 11:25 35.083317 -120.573898 79 6094ft 113kts
12-Feb-19 11:26 35.087969 -120.538383 114 6979ft 101kts
12-Feb-19 11:27 35.081077 -120.502328 111 7493ft 129kts
12-Feb-19 11:28 35.072981 -120.454530 109 7499ft 150kts
12-Feb-19 11:29 35.064455 -120.404001 109 7499ft 152kts
12-Feb-19 11:30 35.055809 -120.353194 109 7499ft 152kts
12-Feb-19 11:31 35.047148 -120.302539 109 7491ft 153kts
12-Feb-19 11:32 35.038439 -120.251650 109 7481ft 152kts
12-Feb-19 11:33 35.029743 -120.201017 109 7476ft 152kts
12-Feb-19 11:34 35.021043 -120.150461 110 7493ft 152kts
12-Feb-19 11:35 35.012286 -120.099761 109 7483ft 152kts
12-Feb-19 11:36 35.003560 -120.049254 109 7473ft 149kts
12-Feb-19 11:37 34.994784 -119.998868 109 7025ft 151kts
12-Feb-19 11:38 34.985923 -119.948027 107 6339ft 154kts
12-Feb-19 11:39 34.977185 -119.897924 106 5277ft 151kts
12-Feb-19 11:40 34.968337 -119.849319 107 3987ft 140kts
12-Feb-19 11:41 34.960123 -119.807590 94 3024ft 108kts
12-Feb-19 11:42 34.958765 -119.769626 100 3015ft 110kts
12-Feb-19 11:43 34.955713 -119.729764 97 2771ft 119kts
12-Feb-19 11:44 34.944755 -119.697519 118 2292ft 79kts
12-Feb-19 11:45 34.938927 -119.682921 115 2206ft 7kts
12-Feb-19 11:46 34.940512 -119.686980 296 2206ft 23kts
12-Feb-19 11:47 34.943039 -119.691086 26 2206ft 3kts
12-Feb-19 11:48 34.943266 -119.691352 188 2206ft 0kts
12-Feb-19 11:49 34.943263 -119.691353 188 2206ft 0kts
12-Feb-19 11:50 34.943260 -119.691353 188 2206ft 0kts
12-Feb-19 11:51 34.943259 -119.691354 188 2206ft 0kts
12-Feb-19 11:52 34.943259 -119.691354 188 2206ft 0kts
12-Feb-19 11:53 34.943259 -119.691354 188 2206ft 0kts
12-Feb-19 11:54 34.943259 -119.691354 188 2206ft 0kts
12-Feb-19 11:55 34.943259 -119.691354 188 2206ft 0kts
12-Feb-19 11:56 34.943259 -119.691354 188 2206ft 0kts
12-Feb-19 11:57 34.943259 -119.691354 188 2206ft 0kts
12-Feb-19 11:58 34.943259 -119.691354 188 2206ft 0kts
12-Feb-19 11:59 34.943259 -119.691354 188 2206ft 0kts

Navigation Log

Ident Type
Flight plan parsing failed, navigation log unavailable